Time;durP1;ratioP1;P1;durP2;ratioP2;P2;SDS_P1;SDS_P2;PMS_P1;PMS_P2;Temp;Humidity;BMP_temperature;BMP_pressure;BME280_temperature;BME280_humidity;BME280_pressure;Samples;Min_cycle;Max_cycle;Signal;HPM_P1;HPM_P2
2022/10/30 00:00:20;;;;;;;15.30;10.40;;;16.80;99.90;;;;;;5130830;27;20197;-68
2022/10/30 00:02:47;;;;;;;15.87;9.80;;;16.80;99.90;;;;;;5130283;27;20225;-68
2022/10/30 00:05:14;;;;;;;18.03;10.27;;;16.80;99.90;;;;;;5130868;27;20208;-68
2022/10/30 00:07:40;;;;;;;18.60;10.10;;;16.80;99.90;;;;;;5130617;27;20622;-68
2022/10/30 00:10:09;;;;;;;13.47;10.97;;;16.80;99.90;;;;;;5130402;27;20237;-68
2022/10/30 00:12:36;;;;;;;16.00;12.03;;;16.70;99.90;;;;;;5130512;27;20205;-68
2022/10/30 00:15:03;;;;;;;16.57;11.37;;;16.70;99.90;;;;;;5130655;27;20215;-68
2022/10/30 00:17:30;;;;;;;14.87;10.70;;;16.80;99.90;;;;;;5130402;27;20231;-68
2022/10/30 00:19:56;;;;;;;14.53;10.30;;;16.70;99.90;;;;;;5130559;27;20593;-68
2022/10/30 00:22:23;;;;;;;16.60;10.00;;;16.60;99.90;;;;;;5130546;27;20202;-68
2022/10/30 00:24:50;;;;;;;19.83;10.17;;;16.60;99.90;;;;;;5130318;27;20208;-68
2022/10/30 00:27:18;;;;;;;12.30;9.50;;;16.50;99.90;;;;;;5130486;27;20825;-68
2022/10/30 00:29:45;;;;;;;13.80;10.20;;;16.50;99.90;;;;;;5130245;27;20230;-68
2022/10/30 00:32:12;;;;;;;14.20;10.37;;;16.50;99.90;;;;;;5130526;27;20213;-68
2022/10/30 00:34:38;;;;;;;13.87;9.40;;;16.50;99.90;;;;;;5130283;27;20210;-68
2022/10/30 00:37:05;;;;;;;17.40;9.87;;;16.50;99.90;;;;;;5130269;27;20206;-68
2022/10/30 00:39:32;;;;;;;13.30;9.70;;;16.40;99.90;;;;;;5130011;27;20206;-68
2022/10/30 00:41:59;;;;;;;13.93;10.10;;;16.40;99.90;;;;;;5130023;27;20212;-68
2022/10/30 00:44:37;;;;;;;14.77;10.07;;;16.40;99.90;;;;;;5129308;27;20202;-68
2022/10/30 00:47:10;;;;;;;11.37;9.63;;;16.40;99.90;;;;;;5129631;27;20185;-68
2022/10/30 00:49:45;;;;;;;14.17;10.27;;;16.30;99.90;;;;;;5129530;27;20218;-68
2022/10/30 00:52:12;;;;;;;12.70;11.00;;;16.30;99.90;;;;;;5129690;27;20204;-68
2022/10/30 00:54:38;;;;;;;14.47;10.80;;;16.30;99.90;;;;;;5129051;27;20209;-68
2022/10/30 00:57:09;;;;;;;14.70;10.97;;;16.30;99.90;;;;;;5115454;27;20217;-68
2022/10/30 00:59:38;;;;;;;13.67;10.43;;;16.20;99.90;;;;;;5114386;27;20197;-68
2022/10/30 01:02:05;;;;;;;13.77;11.27;;;16.20;99.90;;;;;;5129102;27;20222;-68
2022/10/30 01:04:34;;;;;;;16.03;10.53;;;16.20;99.90;;;;;;5129455;27;20197;-68
2022/10/30 01:07:08;;;;;;;14.33;10.60;;;16.20;99.90;;;;;;5129179;27;20563;-68
2022/10/30 01:09:36;;;;;;;16.07;11.00;;;16.20;99.90;;;;;;5128739;27;20224;-68
2022/10/30 01:12:02;;;;;;;16.27;10.90;;;16.20;99.90;;;;;;5129158;27;20684;-68
2022/10/30 01:14:30;;;;;;;13.30;10.53;;;16.20;99.90;;;;;;5128748;27;20208;-68
2022/10/30 01:17:19;;;;;;;16.30;10.63;;;16.20;99.90;;;;;;5129247;27;20213;-68
2022/10/30 01:19:56;;;;;;;17.50;10.93;;;16.20;99.90;;;;;;5129156;27;20202;-68
2022/10/30 01:22:39;;;;;;;15.20;10.97;;;16.10;99.90;;;;;;5129209;27;20562;-68
2022/10/30 01:25:14;;;;;;;15.13;10.90;;;16.10;99.90;;;;;;5128874;27;20555;-68
2022/10/30 01:27:51;;;;;;;14.67;10.57;;;16.10;99.90;;;;;;5109368;27;20683;-68
2022/10/30 01:30:32;;;;;;;19.23;11.43;;;16.20;99.90;;;;;;5108204;28;20704;-68
2022/10/30 01:33:11;;;;;;;15.77;11.40;;;16.10;99.90;;;;;;5108360;28;20194;-68
2022/10/30 01:35:44;;;;;;;14.90;10.37;;;16.20;99.90;;;;;;5108288;28;20190;-68
2022/10/30 01:38:17;;;;;;;19.20;11.00;;;16.10;99.90;;;;;;5108439;28;20205;-68
2022/10/30 01:40:44;;;;;;;17.20;11.43;;;16.10;99.90;;;;;;5112869;27;20224;-68
2022/10/30 01:43:11;;;;;;;19.40;10.80;;;16.10;99.90;;;;;;5108255;28;20259;-68
2022/10/30 01:45:55;;;;;;;14.00;11.47;;;16.20;99.90;;;;;;5107838;28;20202;-68
2022/10/30 01:48:39;;;;;;;22.27;11.30;;;16.20;99.90;;;;;;5112601;27;20197;-68
2022/10/30 01:51:17;;;;;;;17.43;10.80;;;16.20;99.90;;;;;;5128482;27;20699;-68
2022/10/30 01:53:53;;;;;;;16.27;10.83;;;16.20;99.90;;;;;;5128347;27;20193;-68
2022/10/30 01:56:28;;;;;;;15.73;10.43;;;16.20;99.90;;;;;;5126662;27;20200;-68
2022/10/30 01:59:02;;;;;;;13.17;10.70;;;16.20;99.90;;;;;;5128703;27;20192;-68
2022/10/30 02:01:32;;;;;;;16.20;10.83;;;16.20;99.90;;;;;;5128085;27;20218;-68
2022/10/30 02:04:00;;;;;;;20.23;11.90;;;16.20;99.90;;;;;;5128163;27;20237;-68
2022/10/30 02:06:27;;;;;;;15.17;11.20;;;16.20;99.90;;;;;;5128442;27;20201;-68
2022/10/30 02:08:55;;;;;;;14.47;11.73;;;16.10;99.90;;;;;;5128480;27;20217;-68
2022/10/30 02:11:23;;;;;;;14.27;10.37;;;16.20;99.90;;;;;;5128614;27;20205;-68
2022/10/30 02:13:53;;;;;;;20.87;11.97;;;16.20;99.90;;;;;;5124888;27;20751;-68
2022/10/30 02:16:19;;;;;;;13.57;10.67;;;16.10;99.90;;;;;;5107914;28;20202;-68
2022/10/30 02:18:46;;;;;;;16.17;11.40;;;16.10;99.90;;;;;;5107800;28;20206;-68
2022/10/30 02:21:15;;;;;;;18.80;11.57;;;16.10;99.90;;;;;;5128490;27;20213;-69
2022/10/30 02:23:41;;;;;;;15.27;10.57;;;16.20;99.90;;;;;;5132744;27;20295;-68
2022/10/30 02:26:08;;;;;;;15.83;10.77;;;16.20;99.90;;;;;;5132500;27;20225;-68
2022/10/30 02:28:35;;;;;;;14.67;11.07;;;16.20;99.90;;;;;;5132361;27;20205;-68
2022/10/30 02:31:02;;;;;;;15.43;10.80;;;16.10;99.90;;;;;;5132683;27;20241;-69
2022/10/30 02:33:28;;;;;;;15.80;11.07;;;16.20;99.90;;;;;;5117511;27;20375;-68
2022/10/30 02:35:55;;;;;;;14.63;10.23;;;16.20;99.90;;;;;;5112668;27;20232;-68
2022/10/30 02:38:23;;;;;;;17.07;11.47;;;16.20;99.90;;;;;;5132240;27;20224;-68
2022/10/30 02:40:50;;;;;;;14.10;10.23;;;16.20;99.90;;;;;;5132258;27;20258;-68
2022/10/30 02:43:17;;;;;;;16.37;10.80;;;16.20;99.90;;;;;;5132132;27;20210;-68
2022/10/30 02:45:44;;;;;;;14.57;10.80;;;16.20;99.90;;;;;;5132444;27;20205;-68
2022/10/30 02:48:11;;;;;;;14.50;9.90;;;16.20;99.90;;;;;;5131900;27;20209;-68
2022/10/30 02:50:38;;;;;;;14.47;10.27;;;16.20;99.90;;;;;;5131870;27;20340;-68
2022/10/30 02:53:04;;;;;;;14.33;10.53;;;16.20;99.90;;;;;;5131755;27;20575;-68
2022/10/30 02:55:32;;;;;;;14.77;10.97;;;16.20;99.90;;;;;;5130524;27;20679;-68
2022/10/30 02:57:59;;;;;;;14.63;10.50;;;16.10;99.90;;;;;;5111656;27;20217;-68
2022/10/30 03:00:26;;;;;;;12.93;10.40;;;16.10;99.90;;;;;;5111146;28;20248;-68
2022/10/30 03:02:55;;;;;;;13.67;10.23;;;16.10;99.90;;;;;;5112690;27;20264;-68
2022/10/30 03:05:22;;;;;;;19.63;10.60;;;16.10;99.90;;;;;;5131739;27;20699;-68
2022/10/30 03:07:50;;;;;;;15.60;9.97;;;16.10;99.90;;;;;;5131653;27;20206;-68
2022/10/30 03:10:17;;;;;;;17.07;10.40;;;16.10;99.90;;;;;;5131168;27;20282;-68
2022/10/30 03:12:45;;;;;;;18.70;10.57;;;16.10;99.90;;;;;;5131409;27;20197;-68
2022/10/30 03:15:11;;;;;;;16.70;10.10;;;16.10;99.90;;;;;;5131648;27;20212;-68
2022/10/30 03:17:38;;;;;;;17.23;10.33;;;16.10;99.90;;;;;;5130953;27;20202;-68
2022/10/30 03:20:06;;;;;;;13.00;9.70;;;16.10;99.90;;;;;;5131408;27;20198;-68
2022/10/30 03:22:32;;;;;;;15.90;10.27;;;16.10;99.90;;;;;;5131291;27;20208;-68
2022/10/30 03:24:59;;;;;;;15.03;10.63;;;16.10;99.90;;;;;;5131170;27;20410;-68
2022/10/30 03:27:26;;;;;;;18.20;10.87;;;16.10;99.90;;;;;;5114225;27;20570;-68
2022/10/30 03:29:54;;;;;;;13.70;10.30;;;16.10;99.90;;;;;;5110398;28;20233;-68
2022/10/30 03:32:21;;;;;;;11.27;10.03;;;16.10;99.90;;;;;;5111537;27;20202;-68
2022/10/30 03:34:47;;;;;;;19.03;10.57;;;16.10;99.90;;;;;;5113087;27;20229;-68
2022/10/30 03:37:14;;;;;;;15.10;10.50;;;16.00;99.90;;;;;;5110578;28;20214;-68
2022/10/30 03:39:41;;;;;;;18.63;10.47;;;16.00;99.90;;;;;;5110504;28;20206;-68
2022/10/30 03:42:07;;;;;;;14.80;10.53;;;16.00;99.90;;;;;;5125640;27;20216;-68
2022/10/30 03:44:34;;;;;;;25.10;10.93;;;16.00;99.90;;;;;;5131013;27;20209;-68
2022/10/30 03:47:02;;;;;;;23.60;10.77;;;16.00;99.90;;;;;;5131156;27;20202;-68
2022/10/30 03:49:29;;;;;;;21.63;10.80;;;16.00;99.90;;;;;;5130682;27;20205;-68
2022/10/30 03:51:56;;;;;;;14.70;10.50;;;16.00;99.90;;;;;;5131153;27;20217;-68
2022/10/30 03:54:22;;;;;;;16.30;10.60;;;16.00;99.90;;;;;;5130485;27;20201;-68
2022/10/30 03:56:49;;;;;;;16.13;9.97;;;16.00;99.90;;;;;;5118933;27;20213;-68
2022/10/30 03:59:16;;;;;;;16.37;10.40;;;16.00;99.90;;;;;;5113130;27;20213;-68
2022/10/30 04:01:43;;;;;;;16.30;9.90;;;16.00;99.90;;;;;;5130695;27;20228;-68
2022/10/30 04:04:11;;;;;;;16.73;10.07;;;16.00;99.90;;;;;;5130128;27;20230;-68
2022/10/30 04:06:39;;;;;;;10.77;9.30;;;16.10;99.90;;;;;;5130708;27;20708;-68
2022/10/30 04:09:06;;;;;;;15.13;10.20;;;16.10;99.90;;;;;;5130301;27;20204;-68
2022/10/30 04:11:32;;;;;;;14.93;10.20;;;16.10;99.90;;;;;;5130544;27;20241;-68
2022/10/30 04:13:59;;;;;;;15.77;10.03;;;16.10;99.90;;;;;;5130574;27;20209;-68
2022/10/30 04:16:26;;;;;;;14.73;9.43;;;16.10;99.90;;;;;;5130524;27;20206;-68
2022/10/30 04:18:52;;;;;;;12.57;9.40;;;16.10;99.90;;;;;;5130195;27;20202;-68
2022/10/30 04:21:20;;;;;;;16.23;9.83;;;16.10;99.90;;;;;;5130575;27;20205;-68
2022/10/30 04:23:49;;;;;;;12.27;9.17;;;16.10;99.90;;;;;;5130348;27;20201;-68
2022/10/30 04:26:15;;;;;;;13.03;9.53;;;16.10;99.90;;;;;;5130452;27;20219;-68
2022/10/30 04:28:42;;;;;;;15.57;9.73;;;16.10;99.90;;;;;;5130005;27;20205;-68
2022/10/30 04:31:09;;;;;;;13.93;10.37;;;16.00;99.90;;;;;;5130055;27;20229;-68
2022/10/30 04:33:36;;;;;;;13.57;10.50;;;15.90;99.90;;;;;;5129427;27;20201;-68
2022/10/30 04:36:02;;;;;;;11.53;9.97;;;15.90;99.90;;;;;;5130044;27;20201;-68
2022/10/30 04:38:30;;;;;;;14.73;10.67;;;15.80;99.90;;;;;;5129919;27;20205;-68
2022/10/30 04:40:57;;;;;;;13.07;10.27;;;15.80;99.90;;;;;;5129753;27;20213;-68
2022/10/30 04:43:24;;;;;;;12.13;9.67;;;15.90;99.90;;;;;;5129925;27;20210;-68
2022/10/30 04:45:51;;;;;;;14.37;10.30;;;15.90;99.90;;;;;;5129355;27;20646;-68
2022/10/30 04:48:18;;;;;;;12.63;9.07;;;15.80;99.90;;;;;;5129869;27;20421;-68
2022/10/30 04:50:45;;;;;;;11.27;9.50;;;15.80;99.90;;;;;;5129345;27;20844;-68
2022/10/30 04:53:14;;;;;;;13.03;9.30;;;15.80;99.90;;;;;;5129736;27;20657;-68
2022/10/30 04:55:43;;;;;;;12.40;9.67;;;15.80;99.90;;;;;;5127197;27;20213;-68
2022/10/30 04:58:10;;;;;;;17.63;9.97;;;15.80;99.90;;;;;;5129416;27;20660;-68
2022/10/30 05:00:37;;;;;;;16.83;9.73;;;15.80;99.90;;;;;;5129468;27;20230;-68
2022/10/30 05:03:04;;;;;;;12.83;9.67;;;15.70;99.90;;;;;;5129076;27;20247;-68
2022/10/30 05:05:31;;;;;;;13.13;9.93;;;15.70;99.90;;;;;;5129582;27;20210;-68
2022/10/30 05:07:58;;;;;;;12.67;9.83;;;15.70;99.90;;;;;;5129713;27;20220;-68
2022/10/30 05:10:25;;;;;;;14.30;9.27;;;15.70;99.90;;;;;;5129162;27;20232;-68
2022/10/30 05:12:53;;;;;;;10.93;8.90;;;15.70;99.90;;;;;;5129436;27;20206;-68
2022/10/30 05:15:20;;;;;;;16.27;9.57;;;15.70;99.90;;;;;;5129230;27;20229;-68
2022/10/30 05:17:51;;;;;;;12.43;9.37;;;15.80;99.90;;;;;;5128856;27;20205;-68
2022/10/30 05:20:18;;;;;;;13.77;9.90;;;15.80;99.90;;;;;;5128873;27;20201;-68
2022/10/30 05:22:44;;;;;;;14.03;9.40;;;15.80;99.90;;;;;;5128871;27;20209;-68
2022/10/30 05:25:11;;;;;;;12.33;9.03;;;15.80;99.90;;;;;;5128817;27;20581;-68
2022/10/30 05:27:38;;;;;;;13.60;9.57;;;15.80;99.90;;;;;;5109941;27;20332;-68
2022/10/30 05:30:07;;;;;;;18.17;9.63;;;15.80;99.90;;;;;;5108653;28;20240;-68
2022/10/30 05:32:34;;;;;;;12.13;9.20;;;15.80;99.90;;;;;;5107717;27;20669;-68
2022/10/30 05:35:01;;;;;;;10.37;8.07;;;15.80;99.90;;;;;;5126454;27;20206;-68
2022/10/30 05:37:28;;;;;;;16.13;9.47;;;15.90;99.90;;;;;;5128513;27;20672;-68
2022/10/30 05:39:54;;;;;;;14.50;9.90;;;15.80;99.90;;;;;;5128726;27;20197;-68
2022/10/30 05:42:21;;;;;;;11.90;9.00;;;15.80;99.90;;;;;;5128933;27;20209;-68
2022/10/30 05:44:48;;;;;;;16.20;9.73;;;15.70;99.90;;;;;;5128436;27;20213;-68
2022/10/30 05:47:16;;;;;;;11.60;8.47;;;15.70;99.90;;;;;;5128810;27;20212;-68
2022/10/30 05:49:43;;;;;;;14.97;9.47;;;15.70;99.90;;;;;;5128691;27;20208;-68
2022/10/30 05:52:10;;;;;;;12.00;8.83;;;15.60;99.90;;;;;;5128603;27;20240;-68
2022/10/30 05:54:36;;;;;;;12.07;8.43;;;15.50;99.90;;;;;;5127801;27;20198;-68
2022/10/30 05:57:03;;;;;;;14.27;9.43;;;15.60;99.90;;;;;;5114681;27;20210;-68
2022/10/30 05:59:30;;;;;;;16.53;9.53;;;15.60;99.90;;;;;;5107878;28;20213;-68
2022/10/30 06:01:57;;;;;;;13.67;9.20;;;15.70;99.90;;;;;;5107597;28;20229;-69
2022/10/30 06:04:25;;;;;;;11.73;8.47;;;15.70;99.90;;;;;;5107582;28;20197;-68
2022/10/30 06:06:51;;;;;;;12.17;8.27;;;15.70;99.90;;;;;;5107937;28;20202;-68
2022/10/30 06:09:18;;;;;;;11.33;8.33;;;15.80;99.90;;;;;;5107825;28;20217;-68
2022/10/30 06:11:45;;;;;;;12.67;8.60;;;15.80;99.90;;;;;;5107773;28;20241;-68
2022/10/30 06:14:12;;;;;;;12.27;9.10;;;15.80;99.90;;;;;;5107940;28;20221;-68
2022/10/30 06:16:39;;;;;;;12.93;8.77;;;15.90;99.90;;;;;;5108002;28;20206;-68
2022/10/30 06:19:05;;;;;;;12.80;8.80;;;15.90;99.90;;;;;;5108034;28;20202;-68
2022/10/30 06:21:33;;;;;;;11.60;9.40;;;15.90;99.90;;;;;;5126650;28;20201;-68
2022/10/30 06:24:00;;;;;;;15.13;9.07;;;15.90;99.90;;;;;;5127859;27;20672;-68
2022/10/30 06:26:27;;;;;;;10.47;8.53;;;15.90;99.90;;;;;;5119363;27;20213;-68
2022/10/30 06:28:54;;;;;;;12.97;8.53;;;15.90;99.90;;;;;;5107928;28;20207;-68
2022/10/30 06:31:20;;;;;;;10.30;7.87;;;15.90;99.90;;;;;;5126216;28;20243;-68
2022/10/30 06:33:47;;;;;;;13.20;8.77;;;15.90;99.90;;;;;;5127792;27;20587;-68
2022/10/30 06:36:14;;;;;;;13.23;8.77;;;15.90;99.90;;;;;;5128428;27;20205;-68
2022/10/30 06:38:42;;;;;;;10.80;8.00;;;15.90;99.90;;;;;;5128097;27;20209;-68
2022/10/30 06:41:08;;;;;;;13.90;8.63;;;15.90;99.90;;;;;;5128222;27;20205;-68
2022/10/30 06:43:35;;;;;;;12.47;8.00;;;15.80;99.90;;;;;;5128091;27;20201;-68
2022/10/30 06:46:02;;;;;;;12.73;8.73;;;15.80;99.90;;;;;;5128274;27;20213;-68
2022/10/30 06:48:29;;;;;;;16.50;9.17;;;15.80;99.90;;;;;;5127874;27;20592;-68
2022/10/30 06:50:56;;;;;;;11.93;8.07;;;15.80;99.90;;;;;;5128041;27;20232;-68
2022/10/30 06:53:24;;;;;;;14.17;8.83;;;15.80;99.90;;;;;;5128183;27;20206;-68
2022/10/30 06:55:56;;;;;;;12.03;8.33;;;15.80;99.90;;;;;;5124057;27;20297;-68
2022/10/30 06:58:23;;;;;;;15.27;9.03;;;15.80;99.90;;;;;;5107693;28;20693;-68
2022/10/30 07:00:50;;;;;;;14.07;8.30;;;15.80;99.90;;;;;;5107337;28;20234;-68
2022/10/30 07:03:17;;;;;;;11.73;8.57;;;15.80;99.90;;;;;;5104574;28;20252;-68
2022/10/30 07:05:43;;;;;;;14.23;8.67;;;15.80;99.90;;;;;;5125590;27;20198;-68
2022/10/30 07:08:10;;;;;;;13.73;9.27;;;15.80;99.90;;;;;;5131650;27;20214;-68
2022/10/30 07:10:37;;;;;;;11.77;8.97;;;15.80;99.90;;;;;;5131280;27;20205;-68
2022/10/30 07:13:05;;;;;;;13.77;8.90;;;15.80;99.90;;;;;;5131762;27;20205;-68
2022/10/30 07:15:32;;;;;;;13.77;9.60;;;15.80;99.90;;;;;;5131443;27;20212;-68
2022/10/30 07:18:01;;;;;;;14.37;9.53;;;15.80;99.90;;;;;;5125919;27;20217;-68
2022/10/30 07:20:29;;;;;;;15.27;9.37;;;15.80;99.90;;;;;;5131034;27;20206;-68
2022/10/30 07:22:56;;;;;;;14.10;9.23;;;15.80;99.90;;;;;;5131523;27;20201;-68
2022/10/30 07:25:23;;;;;;;14.87;9.23;;;15.80;99.90;;;;;;5131299;27;20201;-68
2022/10/30 07:27:51;;;;;;;15.10;9.50;;;15.80;99.90;;;;;;5130900;27;20229;-68
2022/10/30 07:30:22;;;;;;;11.97;9.27;;;15.80;99.90;;;;;;5131094;27;20682;-68
2022/10/30 07:32:57;;;;;;;15.57;9.43;;;15.80;99.90;;;;;;5130782;27;20222;-68
2022/10/30 07:35:23;;;;;;;14.23;9.00;;;15.80;99.90;;;;;;5131420;27;20193;-68
2022/10/30 07:37:50;;;;;;;11.97;8.83;;;15.80;99.90;;;;;;5131304;27;20825;-68
2022/10/30 07:40:17;;;;;;;13.77;9.03;;;15.90;99.90;;;;;;5131058;27;20209;-68
2022/10/30 07:42:44;;;;;;;15.23;8.70;;;15.90;99.90;;;;;;5131157;27;20212;-68
2022/10/30 07:45:11;;;;;;;13.20;8.33;;;15.90;99.90;;;;;;5131113;27;20197;-68
2022/10/30 07:47:40;;;;;;;12.87;8.63;;;16.00;99.90;;;;;;5130960;27;20611;-68
2022/10/30 07:50:08;;;;;;;16.20;8.47;;;16.10;99.90;;;;;;5131067;27;20212;-68
2022/10/30 07:52:35;;;;;;;12.17;7.87;;;16.10;99.90;;;;;;5130883;27;20236;-68
2022/10/30 07:55:02;;;;;;;14.40;8.20;;;16.10;99.90;;;;;;5130673;27;20209;-68
2022/10/30 07:57:31;;;;;;;11.97;8.40;;;16.20;99.90;;;;;;5113430;27;20221;-68
2022/10/30 07:59:58;;;;;;;10.23;7.77;;;16.20;99.90;;;;;;5110139;28;20560;-68
2022/10/30 08:02:25;;;;;;;12.03;7.80;;;16.20;99.90;;;;;;5109316;28;20235;-68
2022/10/30 08:04:53;;;;;;;12.07;7.57;;;16.20;99.90;;;;;;5107878;28;20195;-68
2022/10/30 08:07:19;;;;;;;9.43;8.53;;;16.30;99.90;;;;;;5110302;28;20212;-68
2022/10/30 08:09:46;;;;;;;11.07;8.50;;;16.30;99.90;;;;;;5109868;28;20206;-68
2022/10/30 08:12:13;;;;;;;14.60;8.40;;;16.30;99.90;;;;;;5110175;28;20233;-68
2022/10/30 08:14:40;;;;;;;11.70;7.90;;;16.30;99.90;;;;;;5114998;27;20206;-68
2022/10/30 08:17:09;;;;;;;15.07;8.07;;;16.30;99.90;;;;;;5109643;28;20210;-68
2022/10/30 08:19:36;;;;;;;12.30;7.60;;;16.40;99.90;;;;;;5112094;27;20212;-68
2022/10/30 08:22:04;;;;;;;10.20;7.67;;;16.50;99.90;;;;;;5130066;27;20663;-68
2022/10/30 08:24:31;;;;;;;10.17;7.40;;;16.50;99.90;;;;;;5129649;27;20303;-68
2022/10/30 08:26:57;;;;;;;13.50;7.77;;;16.60;99.90;;;;;;5117342;27;20214;-68
2022/10/30 08:29:24;;;;;;;14.17;8.30;;;16.70;99.90;;;;;;5113399;27;20205;-68
2022/10/30 08:31:51;;;;;;;11.03;7.70;;;16.80;99.90;;;;;;5130155;27;20229;-68
2022/10/30 08:34:18;;;;;;;13.87;7.50;;;16.90;99.90;;;;;;5130346;27;20202;-68
2022/10/30 08:36:47;;;;;;;12.37;7.37;;;16.90;99.90;;;;;;5130138;27;20231;-68
2022/10/30 08:39:15;;;;;;;12.60;7.60;;;16.90;99.90;;;;;;5130139;27;20213;-68
2022/10/30 08:41:42;;;;;;;9.80;6.60;;;17.00;99.90;;;;;;5130040;27;20205;-68
2022/10/30 08:44:09;;;;;;;17.67;8.43;;;17.00;99.90;;;;;;5130275;27;20218;-68
2022/10/30 08:46:36;;;;;;;17.93;7.70;;;17.10;99.90;;;;;;5130550;27;20205;-68
2022/10/30 08:49:03;;;;;;;12.33;7.43;;;17.20;99.90;;;;;;5130033;27;20205;-68
2022/10/30 08:51:32;;;;;;;12.30;7.47;;;17.30;99.90;;;;;;5130058;27;20231;-68
2022/10/30 08:53:59;;;;;;;10.63;6.37;;;17.40;99.90;;;;;;5129443;27;20744;-68
2022/10/30 08:56:27;;;;;;;11.50;6.80;;;17.40;99.90;;;;;;5130013;27;20205;-68
2022/10/30 08:58:54;;;;;;;12.80;7.13;;;17.60;99.90;;;;;;5130322;27;20205;-68
2022/10/30 09:01:21;;;;;;;11.03;5.83;;;17.60;99.90;;;;;;5129307;27;20226;-68
2022/10/30 09:03:48;;;;;;;9.00;6.10;;;17.60;99.90;;;;;;5129038;27;20233;-68
2022/10/30 09:06:14;;;;;;;12.23;6.10;;;17.60;99.90;;;;;;5129742;27;20198;-68
2022/10/30 09:08:41;;;;;;;10.53;6.90;;;17.60;99.90;;;;;;5129525;27;20622;-68
2022/10/30 09:11:08;;;;;;;11.67;6.67;;;17.70;99.90;;;;;;5123356;27;20201;-68
2022/10/30 09:13:36;;;;;;;14.97;6.80;;;17.70;99.90;;;;;;5129155;27;20205;-68
2022/10/30 09:16:03;;;;;;;9.80;6.27;;;17.80;99.90;;;;;;5129590;27;20209;-68
2022/10/30 09:18:30;;;;;;;11.77;6.30;;;17.90;99.90;;;;;;5128848;27;20216;-68
2022/10/30 09:20:57;;;;;;;11.30;6.30;;;18.00;99.90;;;;;;5129171;27;20197;-68
2022/10/30 09:23:24;;;;;;;8.37;6.40;;;18.10;99.90;;;;;;5129286;27;20209;-69
2022/10/30 09:25:51;;;;;;;8.03;5.87;;;18.20;99.90;;;;;;5125436;27;20210;-68
2022/10/30 09:28:17;;;;;;;11.70;6.50;;;18.30;99.90;;;;;;5108212;28;20209;-68
2022/10/30 09:30:48;;;;;;;10.40;5.53;;;18.30;99.90;;;;;;5107913;28;20202;-69
2022/10/30 09:33:15;;;;;;;13.53;5.87;;;18.40;99.90;;;;;;5107924;28;20213;-68
2022/10/30 09:35:42;;;;;;;13.57;6.03;;;18.50;99.90;;;;;;5108215;28;20201;-68
2022/10/30 09:38:09;;;;;;;9.77;6.07;;;18.60;99.90;;;;;;5122552;27;20204;-68
2022/10/30 09:40:48;;;;;;;10.00;6.23;;;18.70;99.90;;;;;;5128261;27;20292;-68
2022/10/30 09:43:27;;;;;;;8.30;5.40;;;18.70;99.90;;;;;;5128852;27;20197;-68
2022/10/30 09:46:18;;;;;;;11.97;5.83;;;18.80;99.90;;;;;;5128973;27;20189;-68
2022/10/30 09:49:05;;;;;;;9.17;6.13;;;18.80;99.90;;;;;;5128618;27;20284;-69
2022/10/30 09:51:45;;;;;;;10.77;6.00;;;18.90;99.90;;;;;;5128671;27;20189;-69
2022/10/30 09:54:20;;;;;;;9.30;5.90;;;19.00;99.90;;;;;;5128526;27;20189;-69
2022/10/30 09:56:52;;;;;;;12.90;5.67;;;19.10;99.90;;;;;;5128218;27;20197;-68
2022/10/30 09:59:30;;;;;;;12.43;5.30;;;19.20;99.90;;;;;;5128360;27;20201;-69
2022/10/30 10:02:03;;;;;;;9.13;5.43;;;19.30;99.90;;;;;;5128253;27;20236;-69
2022/10/30 10:04:36;;;;;;;9.93;5.33;;;19.40;99.90;;;;;;5128315;27;20189;-68
2022/10/30 10:07:07;;;;;;;9.97;5.60;;;19.60;99.90;;;;;;5118368;27;20212;-68
2022/10/30 10:09:36;;;;;;;13.30;5.87;;;19.70;99.90;;;;;;5107547;28;20190;-68
2022/10/30 10:12:09;;;;;;;7.53;5.37;;;19.80;99.90;;;;;;5107766;28;20253;-68
2022/10/30 10:14:41;;;;;;;7.80;4.70;;;19.80;99.90;;;;;;5111210;27;20711;-68
2022/10/30 10:17:13;;;;;;;10.33;5.07;;;19.90;99.90;;;;;;5128446;27;20512;-68
2022/10/30 10:19:47;;;;;;;10.13;5.07;;;20.00;99.90;;;;;;5128207;27;20200;-68
2022/10/30 10:22:20;;;;;;;12.73;5.37;;;20.10;99.90;;;;;;5128197;27;20205;-68
2022/10/30 10:24:48;;;;;;;13.40;5.73;;;20.20;99.90;;;;;;5127895;27;20673;-69
2022/10/30 10:27:23;;;;;;;10.67;5.50;;;20.30;99.90;;;;;;5112827;27;20209;-68
2022/10/30 10:30:01;;;;;;;12.10;5.60;;;20.30;99.90;;;;;;5107839;28;20190;-68
2022/10/30 10:32:49;;;;;;;9.27;4.87;;;20.40;99.90;;;;;;5107304;28;20216;-68
2022/10/30 10:35:35;;;;;;;11.83;5.47;;;20.50;99.90;;;;;;5107824;28;20194;-69
2022/10/30 10:38:09;;;;;;;13.60;7.97;;;20.60;99.90;;;;;;5107596;28;20556;-68
2022/10/30 10:40:51;;;;;;;10.60;5.37;;;20.60;99.90;;;;;;5108381;28;20628;-68
2022/10/30 10:43:31;;;;;;;10.15;5.03;;;20.70;99.90;;;;;;5111828;27;20198;-68
2022/10/30 10:46:14;;;;;;;10.90;5.63;;;20.70;99.90;;;;;;5111813;28;20213;-68
2022/10/30 10:48:57;;;;;;;9.82;5.07;;;20.80;99.90;;;;;;5111145;28;20198;-69
2022/10/30 10:51:28;;;;;;;6.55;4.70;;;21.00;99.90;;;;;;5111539;28;20194;-68
2022/10/30 10:53:59;;;;;;;11.32;4.90;;;21.10;99.90;;;;;;5111369;27;20222;-69
2022/10/30 10:56:31;;;;;;;11.23;4.80;;;21.10;99.90;;;;;;5120041;27;20208;-69
2022/10/30 10:59:02;;;;;;;11.65;4.80;;;21.20;99.90;;;;;;5131716;27;20225;-70
2022/10/30 11:01:34;;;;;;;11.60;4.90;;;21.30;99.90;;;;;;5131317;27;20225;-69
2022/10/30 11:04:05;;;;;;;9.95;4.88;;;21.50;99.90;;;;;;5120098;27;20244;-69
2022/10/30 11:06:35;;;;;;;10.52;5.35;;;21.50;99.90;;;;;;5111187;27;20194;-69
2022/10/30 11:09:14;;;;;;;13.43;5.03;;;21.60;99.90;;;;;;5108494;27;20205;-69
2022/10/30 11:11:40;;;;;;;12.68;5.35;;;21.80;99.90;;;;;;5120378;27;20208;-69
2022/10/30 11:14:14;;;;;;;12.23;5.10;;;21.80;99.90;;;;;;5129863;27;20201;-69
2022/10/30 11:17:01;;;;;;;10.60;4.72;;;21.90;99.90;;;;;;5116489;27;20656;-69
2022/10/30 11:19:31;;;;;;;10.50;4.85;;;21.90;99.90;;;;;;5125226;27;20206;-69
2022/10/30 11:21:59;;;;;;;11.40;5.10;;;21.90;99.90;;;;;;5128420;27;20201;-68
2022/10/30 11:24:29;;;;;;;10.75;5.20;;;22.00;99.90;;;;;;5125994;27;20664;-69
2022/10/30 11:26:57;;;;;;;13.05;4.93;;;22.00;99.90;;;;;;5122929;27;20216;-69
2022/10/30 11:29:26;;;;;;;10.30;4.90;;;22.10;99.90;;;;;;5115761;27;20213;-69
2022/10/30 11:32:01;;;;;;;12.18;5.18;;;22.10;99.90;;;;;;5125002;27;20198;-69
2022/10/30 11:34:34;;;;;;;12.07;5.03;;;22.20;99.90;;;;;;5117558;27;20259;-69
2022/10/30 11:37:02;;;;;;;14.77;5.63;;;22.20;99.90;;;;;;5109024;27;20227;-69
2022/10/30 11:39:30;;;;;;;11.60;4.65;;;22.30;99.90;;;;;;5108381;28;20198;-68
2022/10/30 11:42:01;;;;;;;14.70;4.80;;;22.40;99.90;;;;;;5108258;28;20202;-68
2022/10/30 11:44:31;;;;;;;8.82;4.88;;;22.50;99.90;;;;;;5107747;28;20529;-68
2022/10/30 11:46:58;;;;;;;11.38;6.45;;;22.60;99.90;;;;;;5108622;28;20199;-69
2022/10/30 11:49:36;;;;;;;14.60;5.18;;;22.60;99.90;;;;;;5108318;28;20206;-69
2022/10/30 11:52:04;;;;;;;10.30;4.80;;;22.70;99.90;;;;;;5107413;28;20205;-69
2022/10/30 11:54:36;;;;;;;8.60;4.90;;;22.80;99.90;;;;;;5108364;28;20210;-69
2022/10/30 11:57:04;;;;;;;9.75;4.72;;;22.90;99.90;;;;;;5109046;28;20213;-69
2022/10/30 11:59:31;;;;;;;11.07;4.53;;;22.90;99.90;;;;;;5108713;28;20210;-69
2022/10/30 12:01:59;;;;;;;10.23;4.57;;;23.00;99.90;;;;;;5125386;27;20251;-69
2022/10/30 12:04:28;;;;;;;9.18;4.82;;;23.20;99.90;;;;;;5115660;27;20213;-69
2022/10/30 12:07:07;;;;;;;10.85;4.95;;;23.20;99.90;;;;;;5108888;27;20202;-69
2022/10/30 12:09:42;;;;;;;11.48;4.70;;;23.20;99.90;;;;;;5128622;27;20249;-69
2022/10/30 12:12:19;;;;;;;7.80;4.88;;;23.30;99.90;;;;;;5128513;27;20219;-69
2022/10/30 12:14:46;;;;;;;12.95;5.13;;;23.30;99.90;;;;;;5128024;27;20203;-68
2022/10/30 12:17:15;;;;;;;10.82;5.10;;;23.30;99.90;;;;;;5128599;27;20201;-68
2022/10/30 12:19:47;;;;;;;9.57;4.63;;;23.20;99.90;;;;;;5128041;27;20298;-69
2022/10/30 12:22:24;;;;;;;9.57;4.20;;;23.10;99.90;;;;;;5128504;27;20274;-69
2022/10/30 12:24:52;;;;;;;8.02;4.97;;;23.20;99.90;;;;;;5128314;27;20399;-69
2022/10/30 12:27:19;;;;;;;14.77;5.43;;;23.20;99.90;;;;;;5111933;27;20676;-69
2022/10/30 12:30:04;;;;;;;9.75;4.55;;;23.20;99.90;;;;;;5121354;27;20588;-69
2022/10/30 12:32:43;;;;;;;11.55;4.85;;;23.30;99.90;;;;;;5127906;27;20233;-69
2022/10/30 12:35:24;;;;;;;10.00;4.90;;;23.40;99.90;;;;;;5128223;27;20197;-69
2022/10/30 12:37:54;;;;;;;10.52;4.88;;;23.40;99.90;;;;;;5128202;27;20213;-68
2022/10/30 12:40:25;;;;;;;10.65;4.90;;;23.50;99.90;;;;;;5128675;27;20190;-69
2022/10/30 12:43:01;;;;;;;14.38;4.70;;;23.50;99.90;;;;;;5128239;27;20212;-69
2022/10/30 12:45:34;;;;;;;8.68;4.10;;;23.60;99.90;;;;;;5128246;27;20200;-69